sensor_id;sensor_type;location;lat;lon;timestamp;P1;durP1;ratioP1;P2;durP2;ratioP2
9294;SDS011;4686;44.496;11.324;2022-07-17T00:00:37;7.20;;;6.60;;
9294;SDS011;4686;44.496;11.324;2022-07-17T00:03:07;10.93;;;7.20;;
9294;SDS011;4686;44.496;11.324;2022-07-17T00:05:37;8.93;;;6.20;;
9294;SDS011;4686;44.496;11.324;2022-07-17T00:08:05;6.43;;;5.83;;
9294;SDS011;4686;44.496;11.324;2022-07-17T00:10:32;8.93;;;6.83;;
9294;SDS011;4686;44.496;11.324;2022-07-17T00:13:00;8.70;;;6.30;;
9294;SDS011;4686;44.496;11.324;2022-07-17T00:15:27;8.43;;;7.70;;
9294;SDS011;4686;44.496;11.324;2022-07-17T00:17:55;8.60;;;7.30;;
9294;SDS011;4686;44.496;11.324;2022-07-17T00:20:22;8.23;;;6.50;;
9294;SDS011;4686;44.496;11.324;2022-07-17T00:22:51;10.33;;;6.90;;
9294;SDS011;4686;44.496;11.324;2022-07-17T00:25:19;8.03;;;7.30;;
9294;SDS011;4686;44.496;11.324;2022-07-17T00:27:47;7.37;;;6.60;;
9294;SDS011;4686;44.496;11.324;2022-07-17T00:30:15;7.17;;;6.57;;
9294;SDS011;4686;44.496;11.324;2022-07-17T00:32:43;7.43;;;6.80;;
9294;SDS011;4686;44.496;11.324;2022-07-17T00:35:11;12.10;;;6.63;;
9294;SDS011;4686;44.496;11.324;2022-07-17T00:37:38;7.10;;;6.50;;
9294;SDS011;4686;44.496;11.324;2022-07-17T00:40:09;6.93;;;6.40;;
9294;SDS011;4686;44.496;11.324;2022-07-17T00:42:38;7.67;;;6.97;;
9294;SDS011;4686;44.496;11.324;2022-07-17T00:45:06;10.50;;;6.97;;
9294;SDS011;4686;44.496;11.324;2022-07-17T00:47:33;10.60;;;6.80;;
9294;SDS011;4686;44.496;11.324;2022-07-17T00:50:03;9.63;;;6.80;;
9294;SDS011;4686;44.496;11.324;2022-07-17T00:52:31;7.73;;;6.90;;
9294;SDS011;4686;44.496;11.324;2022-07-17T00:54:59;8.13;;;6.90;;
9294;SDS011;4686;44.496;11.324;2022-07-17T00:57:28;10.10;;;6.80;;
9294;SDS011;4686;44.496;11.324;2022-07-17T00:59:55;7.50;;;6.80;;
9294;SDS011;4686;44.496;11.324;2022-07-17T01:02:23;8.20;;;7.10;;
9294;SDS011;4686;44.496;11.324;2022-07-17T01:04:50;9.40;;;7.50;;
9294;SDS011;4686;44.496;11.324;2022-07-17T01:07:17;10.07;;;8.03;;
9294;SDS011;4686;44.496;11.324;2022-07-17T01:09:45;11.43;;;7.67;;
9294;SDS011;4686;44.496;11.324;2022-07-17T01:12:12;7.57;;;6.80;;
9294;SDS011;4686;44.496;11.324;2022-07-17T01:14:41;7.37;;;6.67;;
9294;SDS011;4686;44.496;11.324;2022-07-17T01:17:08;8.00;;;6.80;;
9294;SDS011;4686;44.496;11.324;2022-07-17T01:19:36;8.63;;;7.00;;
9294;SDS011;4686;44.496;11.324;2022-07-17T01:22:05;8.50;;;7.60;;
9294;SDS011;4686;44.496;11.324;2022-07-17T01:24:32;7.40;;;6.90;;
9294;SDS011;4686;44.496;11.324;2022-07-17T01:26:59;8.00;;;7.20;;
9294;SDS011;4686;44.496;11.324;2022-07-17T01:29:27;8.33;;;7.50;;
9294;SDS011;4686;44.496;11.324;2022-07-17T01:31:54;8.13;;;7.37;;
9294;SDS011;4686;44.496;11.324;2022-07-17T01:34:21;8.37;;;6.87;;
9294;SDS011;4686;44.496;11.324;2022-07-17T01:36:49;9.10;;;8.10;;
9294;SDS011;4686;44.496;11.324;2022-07-17T01:39:17;11.30;;;7.47;;
9294;SDS011;4686;44.496;11.324;2022-07-17T01:42:05;9.97;;;7.83;;
9294;SDS011;4686;44.496;11.324;2022-07-17T01:44:32;8.37;;;7.67;;
9294;SDS011;4686;44.496;11.324;2022-07-17T01:46:59;8.27;;;7.57;;
9294;SDS011;4686;44.496;11.324;2022-07-17T01:49:27;9.00;;;7.53;;
9294;SDS011;4686;44.496;11.324;2022-07-17T01:51:54;14.10;;;8.70;;
9294;SDS011;4686;44.496;11.324;2022-07-17T01:54:26;9.93;;;8.20;;
9294;SDS011;4686;44.496;11.324;2022-07-17T01:56:53;9.10;;;7.93;;
9294;SDS011;4686;44.496;11.324;2022-07-17T01:59:21;8.10;;;7.50;;
9294;SDS011;4686;44.496;11.324;2022-07-17T02:01:48;13.73;;;8.77;;
9294;SDS011;4686;44.496;11.324;2022-07-17T02:04:15;9.70;;;8.70;;
9294;SDS011;4686;44.496;11.324;2022-07-17T02:06:43;11.00;;;9.70;;
9294;SDS011;4686;44.496;11.324;2022-07-17T02:09:10;9.77;;;8.87;;
9294;SDS011;4686;44.496;11.324;2022-07-17T02:11:39;13.07;;;9.50;;
9294;SDS011;4686;44.496;11.324;2022-07-17T02:14:06;10.90;;;9.73;;
9294;SDS011;4686;44.496;11.324;2022-07-17T02:16:33;13.00;;;10.53;;
9294;SDS011;4686;44.496;11.324;2022-07-17T02:19:01;10.23;;;9.33;;
9294;SDS011;4686;44.496;11.324;2022-07-17T02:21:28;12.83;;;9.00;;
9294;SDS011;4686;44.496;11.324;2022-07-17T02:23:55;11.60;;;10.53;;
9294;SDS011;4686;44.496;11.324;2022-07-17T02:26:25;15.17;;;11.27;;
9294;SDS011;4686;44.496;11.324;2022-07-17T02:28:54;12.17;;;11.07;;
9294;SDS011;4686;44.496;11.324;2022-07-17T02:31:21;12.60;;;10.50;;
9294;SDS011;4686;44.496;11.324;2022-07-17T02:33:49;11.10;;;9.93;;
9294;SDS011;4686;44.496;11.324;2022-07-17T02:36:16;14.00;;;11.60;;
9294;SDS011;4686;44.496;11.324;2022-07-17T02:38:43;11.47;;;10.43;;
9294;SDS011;4686;44.496;11.324;2022-07-17T02:41:10;13.37;;;12.10;;
9294;SDS011;4686;44.496;11.324;2022-07-17T02:43:38;13.10;;;11.73;;
9294;SDS011;4686;44.496;11.324;2022-07-17T02:46:06;12.97;;;11.87;;
9294;SDS011;4686;44.496;11.324;2022-07-17T02:48:34;14.23;;;12.93;;
9294;SDS011;4686;44.496;11.324;2022-07-17T02:51:01;20.53;;;13.27;;
9294;SDS011;4686;44.496;11.324;2022-07-17T02:53:29;17.17;;;14.30;;
9294;SDS011;4686;44.496;11.324;2022-07-17T02:55:56;14.07;;;12.50;;
9294;SDS011;4686;44.496;11.324;2022-07-17T02:58:24;12.30;;;11.30;;
9294;SDS011;4686;44.496;11.324;2022-07-17T03:00:54;11.90;;;10.90;;
9294;SDS011;4686;44.496;11.324;2022-07-17T03:03:22;14.20;;;12.43;;
9294;SDS011;4686;44.496;11.324;2022-07-17T03:05:50;12.63;;;11.37;;
9294;SDS011;4686;44.496;11.324;2022-07-17T03:08:17;10.90;;;9.90;;
9294;SDS011;4686;44.496;11.324;2022-07-17T03:10:44;11.67;;;10.40;;
9294;SDS011;4686;44.496;11.324;2022-07-17T03:13:12;10.90;;;9.33;;
9294;SDS011;4686;44.496;11.324;2022-07-17T03:15:39;11.20;;;10.20;;
9294;SDS011;4686;44.496;11.324;2022-07-17T03:18:06;12.90;;;9.30;;
9294;SDS011;4686;44.496;11.324;2022-07-17T03:20:35;13.13;;;11.83;;
9294;SDS011;4686;44.496;11.324;2022-07-17T03:23:03;11.77;;;9.97;;
9294;SDS011;4686;44.496;11.324;2022-07-17T03:25:30;13.60;;;11.07;;
9294;SDS011;4686;44.496;11.324;2022-07-17T03:27:57;11.97;;;10.80;;
9294;SDS011;4686;44.496;11.324;2022-07-17T03:30:25;12.40;;;10.17;;
9294;SDS011;4686;44.496;11.324;2022-07-17T03:32:53;12.67;;;11.37;;
9294;SDS011;4686;44.496;11.324;2022-07-17T03:35:20;11.53;;;9.33;;
9294;SDS011;4686;44.496;11.324;2022-07-17T03:37:51;10.13;;;9.10;;
9294;SDS011;4686;44.496;11.324;2022-07-17T03:40:19;12.83;;;9.50;;
9294;SDS011;4686;44.496;11.324;2022-07-17T03:42:47;13.40;;;12.00;;
9294;SDS011;4686;44.496;11.324;2022-07-17T03:45:14;13.90;;;10.83;;
9294;SDS011;4686;44.496;11.324;2022-07-17T03:47:41;12.67;;;11.43;;
9294;SDS011;4686;44.496;11.324;2022-07-17T03:50:09;12.50;;;11.30;;
9294;SDS011;4686;44.496;11.324;2022-07-17T03:52:36;16.10;;;13.60;;
9294;SDS011;4686;44.496;11.324;2022-07-17T03:55:06;15.13;;;13.63;;
9294;SDS011;4686;44.496;11.324;2022-07-17T03:57:33;18.83;;;13.80;;
9294;SDS011;4686;44.496;11.324;2022-07-17T04:00:00;14.23;;;12.93;;
9294;SDS011;4686;44.496;11.324;2022-07-17T04:02:28;15.70;;;14.10;;
9294;SDS011;4686;44.496;11.324;2022-07-17T04:04:55;17.27;;;13.43;;
9294;SDS011;4686;44.496;11.324;2022-07-17T04:07:22;13.43;;;11.23;;
9294;SDS011;4686;44.496;11.324;2022-07-17T04:09:53;11.20;;;10.03;;
9294;SDS011;4686;44.496;11.324;2022-07-17T04:12:22;9.90;;;8.87;;
9294;SDS011;4686;44.496;11.324;2022-07-17T04:14:50;9.10;;;8.40;;
9294;SDS011;4686;44.496;11.324;2022-07-17T04:17:17;10.43;;;9.53;;
9294;SDS011;4686;44.496;11.324;2022-07-17T04:19:45;9.73;;;8.80;;
9294;SDS011;4686;44.496;11.324;2022-07-17T04:22:13;9.40;;;8.70;;
9294;SDS011;4686;44.496;11.324;2022-07-17T04:24:40;9.73;;;8.40;;
9294;SDS011;4686;44.496;11.324;2022-07-17T04:27:07;12.07;;;8.87;;
9294;SDS011;4686;44.496;11.324;2022-07-17T04:29:36;9.43;;;8.57;;
9294;SDS011;4686;44.496;11.324;2022-07-17T04:32:04;10.73;;;8.43;;
9294;SDS011;4686;44.496;11.324;2022-07-17T04:34:31;8.93;;;8.23;;
9294;SDS011;4686;44.496;11.324;2022-07-17T04:36:59;8.40;;;7.60;;
9294;SDS011;4686;44.496;11.324;2022-07-17T04:39:26;8.83;;;8.13;;
9294;SDS011;4686;44.496;11.324;2022-07-17T04:41:54;8.23;;;7.63;;
9294;SDS011;4686;44.496;11.324;2022-07-17T04:44:21;8.20;;;7.47;;
9294;SDS011;4686;44.496;11.324;2022-07-17T04:46:50;13.30;;;7.50;;
9294;SDS011;4686;44.496;11.324;2022-07-17T04:49:17;8.50;;;7.70;;
9294;SDS011;4686;44.496;11.324;2022-07-17T04:51:44;8.30;;;7.50;;
9294;SDS011;4686;44.496;11.324;2022-07-17T04:54:12;8.93;;;8.17;;
9294;SDS011;4686;44.496;11.324;2022-07-17T04:56:39;8.63;;;7.70;;
9294;SDS011;4686;44.496;11.324;2022-07-17T04:59:06;9.63;;;8.00;;
9294;SDS011;4686;44.496;11.324;2022-07-17T05:01:34;8.83;;;8.00;;
9294;SDS011;4686;44.496;11.324;2022-07-17T05:04:04;8.80;;;7.93;;
9294;SDS011;4686;44.496;11.324;2022-07-17T05:06:32;8.90;;;8.10;;
9294;SDS011;4686;44.496;11.324;2022-07-17T05:09:00;9.50;;;8.60;;
9294;SDS011;4686;44.496;11.324;2022-07-17T05:11:27;8.23;;;7.63;;
9294;SDS011;4686;44.496;11.324;2022-07-17T05:13:54;8.13;;;7.53;;
9294;SDS011;4686;44.496;11.324;2022-07-17T05:16:22;10.33;;;8.13;;
9294;SDS011;4686;44.496;11.324;2022-07-17T05:18:49;10.30;;;9.07;;
9294;SDS011;4686;44.496;11.324;2022-07-17T05:21:17;9.50;;;8.60;;
9294;SDS011;4686;44.496;11.324;2022-07-17T05:23:45;9.80;;;8.80;;
9294;SDS011;4686;44.496;11.324;2022-07-17T05:26:12;9.00;;;8.30;;
9294;SDS011;4686;44.496;11.324;2022-07-17T05:28:40;8.80;;;8.07;;
9294;SDS011;4686;44.496;11.324;2022-07-17T05:31:07;11.23;;;8.30;;
9294;SDS011;4686;44.496;11.324;2022-07-17T05:33:34;9.60;;;8.77;;
9294;SDS011;4686;44.496;11.324;2022-07-17T05:36:02;10.23;;;8.77;;
9294;SDS011;4686;44.496;11.324;2022-07-17T05:38:31;9.03;;;8.23;;
9294;SDS011;4686;44.496;11.324;2022-07-17T05:40:58;9.13;;;8.40;;
9294;SDS011;4686;44.496;11.324;2022-07-17T05:43:26;8.63;;;7.83;;
9294;SDS011;4686;44.496;11.324;2022-07-17T05:45:53;9.73;;;8.83;;
9294;SDS011;4686;44.496;11.324;2022-07-17T05:48:21;10.90;;;9.70;;
9294;SDS011;4686;44.496;11.324;2022-07-17T05:50:48;10.00;;;9.00;;
9294;SDS011;4686;44.496;11.324;2022-07-17T05:53:16;10.60;;;8.60;;
9294;SDS011;4686;44.496;11.324;2022-07-17T05:55:45;11.17;;;9.20;;
9294;SDS011;4686;44.496;11.324;2022-07-17T05:58:13;11.70;;;8.40;;
9294;SDS011;4686;44.496;11.324;2022-07-17T06:00:41;9.20;;;8.30;;
9294;SDS011;4686;44.496;11.324;2022-07-17T06:03:08;9.83;;;9.03;;
9294;SDS011;4686;44.496;11.324;2022-07-17T06:05:36;10.90;;;9.80;;
9294;SDS011;4686;44.496;11.324;2022-07-17T06:08:03;13.97;;;11.03;;
9294;SDS011;4686;44.496;11.324;2022-07-17T06:10:31;14.07;;;8.90;;
9294;SDS011;4686;44.496;11.324;2022-07-17T06:12:59;10.27;;;9.37;;
9294;SDS011;4686;44.496;11.324;2022-07-17T06:15:27;11.23;;;10.20;;
9294;SDS011;4686;44.496;11.324;2022-07-17T06:17:54;11.03;;;9.30;;
9294;SDS011;4686;44.496;11.324;2022-07-17T06:20:21;10.60;;;9.60;;
9294;SDS011;4686;44.496;11.324;2022-07-17T06:22:49;11.50;;;10.30;;
9294;SDS011;4686;44.496;11.324;2022-07-17T06:25:16;10.97;;;9.20;;
9294;SDS011;4686;44.496;11.324;2022-07-17T06:27:43;10.63;;;9.70;;
9294;SDS011;4686;44.496;11.324;2022-07-17T06:30:13;10.97;;;9.87;;
9294;SDS011;4686;44.496;11.324;2022-07-17T06:32:40;10.77;;;9.60;;
9294;SDS011;4686;44.496;11.324;2022-07-17T06:35:08;10.43;;;8.63;;
9294;SDS011;4686;44.496;11.324;2022-07-17T06:37:36;11.90;;;9.70;;
9294;SDS011;4686;44.496;11.324;2022-07-17T06:40:04;11.40;;;8.80;;
9294;SDS011;4686;44.496;11.324;2022-07-17T06:42:31;10.43;;;9.40;;
9294;SDS011;4686;44.496;11.324;2022-07-17T06:44:59;9.13;;;8.33;;
9294;SDS011;4686;44.496;11.324;2022-07-17T06:47:27;10.83;;;9.73;;
9294;SDS011;4686;44.496;11.324;2022-07-17T06:49:55;10.40;;;9.50;;
9294;SDS011;4686;44.496;11.324;2022-07-17T06:52:22;12.67;;;10.43;;
9294;SDS011;4686;44.496;11.324;2022-07-17T06:54:50;11.33;;;10.17;;
9294;SDS011;4686;44.496;11.324;2022-07-17T06:57:18;11.40;;;10.10;;
9294;SDS011;4686;44.496;11.324;2022-07-17T06:59:45;12.27;;;11.07;;
9294;SDS011;4686;44.496;11.324;2022-07-17T07:02:12;13.43;;;11.13;;
9294;SDS011;4686;44.496;11.324;2022-07-17T07:04:41;12.80;;;11.50;;
9294;SDS011;4686;44.496;11.324;2022-07-17T07:07:10;18.57;;;11.53;;
9294;SDS011;4686;44.496;11.324;2022-07-17T07:09:37;14.20;;;11.33;;
9294;SDS011;4686;44.496;11.324;2022-07-17T07:12:05;12.93;;;11.27;;
9294;SDS011;4686;44.496;11.324;2022-07-17T07:14:32;11.67;;;10.47;;
9294;SDS011;4686;44.496;11.324;2022-07-17T07:17:00;11.40;;;10.20;;
9294;SDS011;4686;44.496;11.324;2022-07-17T07:19:27;13.30;;;9.27;;
9294;SDS011;4686;44.496;11.324;2022-07-17T07:21:56;12.33;;;11.00;;
9294;SDS011;4686;44.496;11.324;2022-07-17T07:24:25;11.83;;;10.53;;
9294;SDS011;4686;44.496;11.324;2022-07-17T07:26:53;14.47;;;10.33;;
9294;SDS011;4686;44.496;11.324;2022-07-17T07:29:20;12.90;;;10.70;;
9294;SDS011;4686;44.496;11.324;2022-07-17T07:31:48;11.47;;;10.47;;
9294;SDS011;4686;44.496;11.324;2022-07-17T07:34:16;9.90;;;8.90;;
9294;SDS011;4686;44.496;11.324;2022-07-17T07:36:44;14.83;;;10.80;;
9294;SDS011;4686;44.496;11.324;2022-07-17T07:39:13;14.37;;;10.80;;
9294;SDS011;4686;44.496;11.324;2022-07-17T07:41:41;10.23;;;9.33;;
9294;SDS011;4686;44.496;11.324;2022-07-17T07:44:13;9.77;;;8.87;;
9294;SDS011;4686;44.496;11.324;2022-07-17T07:46:40;12.43;;;9.27;;
9294;SDS011;4686;44.496;11.324;2022-07-17T07:49:07;13.63;;;10.17;;
9294;SDS011;4686;44.496;11.324;2022-07-17T07:51:35;9.10;;;8.40;;
9294;SDS011;4686;44.496;11.324;2022-07-17T07:54:02;10.60;;;7.93;;
9294;SDS011;4686;44.496;11.324;2022-07-17T07:56:32;10.73;;;9.83;;
9294;SDS011;4686;44.496;11.324;2022-07-17T07:59:00;13.33;;;8.07;;
9294;SDS011;4686;44.496;11.324;2022-07-17T08:01:27;12.53;;;8.60;;
9294;SDS011;4686;44.496;11.324;2022-07-17T08:03:55;9.87;;;8.53;;
9294;SDS011;4686;44.496;11.324;2022-07-17T08:06:22;9.47;;;8.50;;
9294;SDS011;4686;44.496;11.324;2022-07-17T08:08:50;13.37;;;7.40;;
9294;SDS011;4686;44.496;11.324;2022-07-17T08:11:17;11.50;;;8.47;;
9294;SDS011;4686;44.496;11.324;2022-07-17T08:13:45;12.33;;;8.20;;
9294;SDS011;4686;44.496;11.324;2022-07-17T08:16:14;15.17;;;8.10;;
9294;SDS011;4686;44.496;11.324;2022-07-17T08:18:41;9.33;;;8.40;;
9294;SDS011;4686;44.496;11.324;2022-07-17T08:21:10;10.60;;;7.60;;
9294;SDS011;4686;44.496;11.324;2022-07-17T08:23:37;9.20;;;8.23;;
9294;SDS011;4686;44.496;11.324;2022-07-17T08:26:04;10.70;;;7.60;;
9294;SDS011;4686;44.496;11.324;2022-07-17T08:28:32;9.60;;;7.50;;
9294;SDS011;4686;44.496;11.324;2022-07-17T08:31:00;8.97;;;7.73;;
9294;SDS011;4686;44.496;11.324;2022-07-17T08:33:28;12.63;;;9.00;;
9294;SDS011;4686;44.496;11.324;2022-07-17T08:35:55;11.20;;;8.07;;
9294;SDS011;4686;44.496;11.324;2022-07-17T08:38:22;9.37;;;6.80;;
9294;SDS011;4686;44.496;11.324;2022-07-17T08:40:51;11.20;;;7.30;;
9294;SDS011;4686;44.496;11.324;2022-07-17T08:43:19;10.90;;;7.63;;
9294;SDS011;4686;44.496;11.324;2022-07-17T08:45:47;10.53;;;7.30;;
9294;SDS011;4686;44.496;11.324;2022-07-17T08:48:17;14.83;;;13.23;;
9294;SDS011;4686;44.496;11.324;2022-07-17T08:50:45;12.60;;;10.93;;
9294;SDS011;4686;44.496;11.324;2022-07-17T08:53:13;10.70;;;8.10;;
9294;SDS011;4686;44.496;11.324;2022-07-17T08:55:41;10.40;;;7.70;;
9294;SDS011;4686;44.496;11.324;2022-07-17T08:58:13;9.47;;;7.50;;
9294;SDS011;4686;44.496;11.324;2022-07-17T09:00:41;10.90;;;7.17;;
9294;SDS011;4686;44.496;11.324;2022-07-17T09:03:09;13.47;;;7.90;;
9294;SDS011;4686;44.496;11.324;2022-07-17T09:05:38;11.63;;;7.40;;
9294;SDS011;4686;44.496;11.324;2022-07-17T09:08:06;11.73;;;7.53;;
9294;SDS011;4686;44.496;11.324;2022-07-17T09:10:34;9.30;;;7.40;;
9294;SDS011;4686;44.496;11.324;2022-07-17T09:13:12;11.23;;;7.43;;
9294;SDS011;4686;44.496;11.324;2022-07-17T09:15:40;12.60;;;7.20;;
9294;SDS011;4686;44.496;11.324;2022-07-17T09:18:08;12.70;;;7.40;;
9294;SDS011;4686;44.496;11.324;2022-07-17T09:20:42;11.67;;;7.53;;
9294;SDS011;4686;44.496;11.324;2022-07-17T09:23:11;17.63;;;7.47;;
9294;SDS011;4686;44.496;11.324;2022-07-17T09:25:39;14.87;;;6.87;;
9294;SDS011;4686;44.496;11.324;2022-07-17T09:28:07;14.10;;;7.33;;
9294;SDS011;4686;44.496;11.324;2022-07-17T09:30:35;17.10;;;8.10;;
9294;SDS011;4686;44.496;11.324;2022-07-17T09:33:05;14.33;;;6.93;;
9294;SDS011;4686;44.496;11.324;2022-07-17T09:35:34;10.83;;;6.70;;
9294;SDS011;4686;44.496;11.324;2022-07-17T09:38:03;13.73;;;7.27;;
9294;SDS011;4686;44.496;11.324;2022-07-17T09:40:30;11.10;;;6.93;;
9294;SDS011;4686;44.496;11.324;2022-07-17T09:43:15;12.03;;;6.77;;
9294;SDS011;4686;44.496;11.324;2022-07-17T09:45:43;12.97;;;6.87;;
9294;SDS011;4686;44.496;11.324;2022-07-17T09:48:10;17.47;;;6.90;;
9294;SDS011;4686;44.496;11.324;2022-07-17T09:50:38;9.20;;;6.70;;
9294;SDS011;4686;44.496;11.324;2022-07-17T09:53:07;13.70;;;6.50;;
9294;SDS011;4686;44.496;11.324;2022-07-17T09:55:36;10.03;;;6.80;;
9294;SDS011;4686;44.496;11.324;2022-07-17T09:58:04;11.20;;;6.60;;
9294;SDS011;4686;44.496;11.324;2022-07-17T10:00:34;10.80;;;6.33;;
9294;SDS011;4686;44.496;11.324;2022-07-17T10:03:03;9.50;;;6.07;;
9294;SDS011;4686;44.496;11.324;2022-07-17T10:05:32;20.40;;;6.60;;
9294;SDS011;4686;44.496;11.324;2022-07-17T10:08:02;7.87;;;6.43;;
9294;SDS011;4686;44.496;11.324;2022-07-17T10:10:34;11.73;;;6.80;;
9294;SDS011;4686;44.496;11.324;2022-07-17T10:13:01;12.00;;;6.70;;
9294;SDS011;4686;44.496;11.324;2022-07-17T10:15:29;12.67;;;6.07;;
9294;SDS011;4686;44.496;11.324;2022-07-17T10:18:05;9.27;;;6.17;;
9294;SDS011;4686;44.496;11.324;2022-07-17T10:20:32;8.77;;;5.83;;
9294;SDS011;4686;44.496;11.324;2022-07-17T10:23:10;9.17;;;6.40;;
9294;SDS011;4686;44.496;11.324;2022-07-17T10:25:39;13.07;;;6.37;;
9294;SDS011;4686;44.496;11.324;2022-07-17T10:28:07;12.47;;;6.40;;
9294;SDS011;4686;44.496;11.324;2022-07-17T10:30:40;10.17;;;5.73;;
9294;SDS011;4686;44.496;11.324;2022-07-17T10:33:08;8.60;;;5.67;;
9294;SDS011;4686;44.496;11.324;2022-07-17T10:35:42;8.37;;;6.10;;
9294;SDS011;4686;44.496;11.324;2022-07-17T10:38:10;15.33;;;7.80;;
9294;SDS011;4686;44.496;11.324;2022-07-17T10:40:39;11.80;;;6.67;;
9294;SDS011;4686;44.496;11.324;2022-07-17T10:43:07;12.10;;;6.80;;
9294;SDS011;4686;44.496;11.324;2022-07-17T10:45:35;10.70;;;6.50;;
9294;SDS011;4686;44.496;11.324;2022-07-17T10:48:05;8.90;;;5.80;;
9294;SDS011;4686;44.496;11.324;2022-07-17T10:50:33;13.67;;;5.77;;
9294;SDS011;4686;44.496;11.324;2022-07-17T10:53:02;9.70;;;5.50;;
9294;SDS011;4686;44.496;11.324;2022-07-17T10:55:30;10.70;;;5.87;;
9294;SDS011;4686;44.496;11.324;2022-07-17T10:57:59;8.07;;;5.50;;
9294;SDS011;4686;44.496;11.324;2022-07-17T11:00:27;9.90;;;5.50;;
9294;SDS011;4686;44.496;11.324;2022-07-17T11:02:54;11.00;;;5.97;;
9294;SDS011;4686;44.496;11.324;2022-07-17T11:05:22;10.23;;;5.80;;
9294;SDS011;4686;44.496;11.324;2022-07-17T11:07:53;8.90;;;5.30;;
9294;SDS011;4686;44.496;11.324;2022-07-17T11:10:21;8.50;;;5.90;;
9294;SDS011;4686;44.496;11.324;2022-07-17T11:12:50;7.77;;;5.57;;
9294;SDS011;4686;44.496;11.324;2022-07-17T11:15:19;13.47;;;6.33;;
9294;SDS011;4686;44.496;11.324;2022-07-17T11:17:47;9.10;;;5.73;;
9294;SDS011;4686;44.496;11.324;2022-07-17T11:20:14;9.53;;;6.23;;
9294;SDS011;4686;44.496;11.324;2022-07-17T11:22:42;10.17;;;6.10;;
9294;SDS011;4686;44.496;11.324;2022-07-17T11:25:09;14.30;;;5.30;;
9294;SDS011;4686;44.496;11.324;2022-07-17T11:27:37;12.00;;;6.00;;
9294;SDS011;4686;44.496;11.324;2022-07-17T11:30:05;8.07;;;5.10;;
9294;SDS011;4686;44.496;11.324;2022-07-17T11:32:40;11.70;;;6.30;;
9294;SDS011;4686;44.496;11.324;2022-07-17T11:35:14;10.37;;;6.10;;
9294;SDS011;4686;44.496;11.324;2022-07-17T11:37:42;7.33;;;5.23;;
9294;SDS011;4686;44.496;11.324;2022-07-17T11:40:10;15.33;;;6.50;;
9294;SDS011;4686;44.496;11.324;2022-07-17T11:42:38;10.80;;;6.20;;
9294;SDS011;4686;44.496;11.324;2022-07-17T11:45:05;15.30;;;6.07;;
9294;SDS011;4686;44.496;11.324;2022-07-17T11:47:35;7.67;;;5.37;;
9294;SDS011;4686;44.496;11.324;2022-07-17T11:50:05;11.57;;;5.90;;
9294;SDS011;4686;44.496;11.324;2022-07-17T11:52:39;8.33;;;6.27;;
9294;SDS011;4686;44.496;11.324;2022-07-17T11:55:07;7.73;;;5.23;;
9294;SDS011;4686;44.496;11.324;2022-07-17T11:57:42;14.33;;;5.50;;
9294;SDS011;4686;44.496;11.324;2022-07-17T12:00:24;11.93;;;4.87;;
9294;SDS011;4686;44.496;11.324;2022-07-17T12:05:46;7.47;;;4.60;;
9294;SDS011;4686;44.496;11.324;2022-07-17T12:08:24;10.97;;;5.43;;
9294;SDS011;4686;44.496;11.324;2022-07-17T12:11:02;17.83;;;5.53;;
9294;SDS011;4686;44.496;11.324;2022-07-17T12:13:39;13.30;;;5.43;;
9294;SDS011;4686;44.496;11.324;2022-07-17T12:16:18;7.77;;;5.10;;
9294;SDS011;4686;44.496;11.324;2022-07-17T12:18:54;7.53;;;5.07;;
9294;SDS011;4686;44.496;11.324;2022-07-17T12:21:26;11.20;;;5.73;;
9294;SDS011;4686;44.496;11.324;2022-07-17T12:24:01;9.13;;;5.10;;
9294;SDS011;4686;44.496;11.324;2022-07-17T12:26:39;12.93;;;5.80;;
9294;SDS011;4686;44.496;11.324;2022-07-17T12:29:25;7.53;;;5.57;;
9294;SDS011;4686;44.496;11.324;2022-07-17T12:32:00;11.30;;;5.83;;
9294;SDS011;4686;44.496;11.324;2022-07-17T12:34:28;9.13;;;5.00;;
9294;SDS011;4686;44.496;11.324;2022-07-17T12:36:59;8.00;;;5.10;;
9294;SDS011;4686;44.496;11.324;2022-07-17T12:39:28;11.73;;;5.30;;
9294;SDS011;4686;44.496;11.324;2022-07-17T12:41:57;6.87;;;5.57;;
9294;SDS011;4686;44.496;11.324;2022-07-17T12:44:29;9.70;;;6.00;;
9294;SDS011;4686;44.496;11.324;2022-07-17T12:47:01;6.97;;;5.00;;
9294;SDS011;4686;44.496;11.324;2022-07-17T12:49:44;12.57;;;5.77;;
9294;SDS011;4686;44.496;11.324;2022-07-17T12:52:13;7.03;;;5.20;;
9294;SDS011;4686;44.496;11.324;2022-07-17T12:54:42;6.70;;;4.80;;
9294;SDS011;4686;44.496;11.324;2022-07-17T12:57:09;7.00;;;5.30;;
9294;SDS011;4686;44.496;11.324;2022-07-17T12:59:39;9.23;;;5.43;;
9294;SDS011;4686;44.496;11.324;2022-07-17T13:02:06;13.40;;;5.10;;
9294;SDS011;4686;44.496;11.324;2022-07-17T13:04:43;4.97;;;4.50;;
9294;SDS011;4686;44.496;11.324;2022-07-17T13:07:10;10.40;;;4.73;;
9294;SDS011;4686;44.496;11.324;2022-07-17T13:09:39;7.57;;;4.83;;
9294;SDS011;4686;44.496;11.324;2022-07-17T13:12:07;6.40;;;5.50;;
9294;SDS011;4686;44.496;11.324;2022-07-17T13:14:34;6.27;;;5.10;;
9294;SDS011;4686;44.496;11.324;2022-07-17T13:17:02;8.20;;;5.43;;
9294;SDS011;4686;44.496;11.324;2022-07-17T13:19:29;6.00;;;5.17;;
9294;SDS011;4686;44.496;11.324;2022-07-17T13:21:57;6.23;;;5.03;;
9294;SDS011;4686;44.496;11.324;2022-07-17T13:24:24;5.33;;;4.50;;
9294;SDS011;4686;44.496;11.324;2022-07-17T13:26:54;9.50;;;5.03;;
9294;SDS011;4686;44.496;11.324;2022-07-17T13:29:22;7.30;;;5.20;;
9294;SDS011;4686;44.496;11.324;2022-07-17T13:31:51;7.30;;;5.03;;
9294;SDS011;4686;44.496;11.324;2022-07-17T13:34:19;5.80;;;4.80;;
9294;SDS011;4686;44.496;11.324;2022-07-17T13:36:46;9.93;;;5.10;;
9294;SDS011;4686;44.496;11.324;2022-07-17T13:39:14;7.60;;;5.30;;
9294;SDS011;4686;44.496;11.324;2022-07-17T13:41:43;8.90;;;4.53;;
9294;SDS011;4686;44.496;11.324;2022-07-17T13:44:14;9.03;;;5.30;;
9294;SDS011;4686;44.496;11.324;2022-07-17T13:46:44;7.27;;;5.13;;
9294;SDS011;4686;44.496;11.324;2022-07-17T13:49:11;8.00;;;5.03;;
9294;SDS011;4686;44.496;11.324;2022-07-17T13:51:39;13.17;;;5.53;;
9294;SDS011;4686;44.496;11.324;2022-07-17T13:54:07;6.37;;;5.17;;
9294;SDS011;4686;44.496;11.324;2022-07-17T13:56:34;5.50;;;4.63;;
9294;SDS011;4686;44.496;11.324;2022-07-17T13:59:02;7.43;;;5.00;;
9294;SDS011;4686;44.496;11.324;2022-07-17T14:01:33;9.17;;;5.07;;
9294;SDS011;4686;44.496;11.324;2022-07-17T14:04:01;11.97;;;5.17;;
9294;SDS011;4686;44.496;11.324;2022-07-17T14:06:28;8.90;;;5.43;;
9294;SDS011;4686;44.496;11.324;2022-07-17T14:08:56;9.10;;;5.37;;
9294;SDS011;4686;44.496;11.324;2022-07-17T14:11:23;5.30;;;4.80;;
9294;SDS011;4686;44.496;11.324;2022-07-17T14:13:52;7.37;;;4.67;;
9294;SDS011;4686;44.496;11.324;2022-07-17T14:16:20;12.17;;;5.43;;
9294;SDS011;4686;44.496;11.324;2022-07-17T14:18:49;7.93;;;5.93;;
9294;SDS011;4686;44.496;11.324;2022-07-17T14:21:26;7.00;;;4.90;;
9294;SDS011;4686;44.496;11.324;2022-07-17T14:23:54;5.10;;;4.63;;
9294;SDS011;4686;44.496;11.324;2022-07-17T14:26:21;5.40;;;4.73;;
9294;SDS011;4686;44.496;11.324;2022-07-17T14:28:49;5.93;;;4.83;;
9294;SDS011;4686;44.496;11.324;2022-07-17T14:31:17;5.43;;;4.10;;
9294;SDS011;4686;44.496;11.324;2022-07-17T14:33:44;8.93;;;4.93;;
9294;SDS011;4686;44.496;11.324;2022-07-17T14:36:14;8.03;;;5.27;;
9294;SDS011;4686;44.496;11.324;2022-07-17T14:38:42;10.70;;;5.47;;
9294;SDS011;4686;44.496;11.324;2022-07-17T14:41:09;7.13;;;6.43;;
9294;SDS011;4686;44.496;11.324;2022-07-17T14:43:36;15.33;;;5.17;;
9294;SDS011;4686;44.496;11.324;2022-07-17T14:46:05;7.20;;;4.83;;
9294;SDS011;4686;44.496;11.324;2022-07-17T14:48:32;9.37;;;4.77;;
9294;SDS011;4686;44.496;11.324;2022-07-17T14:51:01;8.33;;;4.90;;
9294;SDS011;4686;44.496;11.324;2022-07-17T14:53:32;5.30;;;4.70;;
9294;SDS011;4686;44.496;11.324;2022-07-17T14:56:00;6.77;;;5.07;;
9294;SDS011;4686;44.496;11.324;2022-07-17T14:58:27;9.40;;;4.90;;
9294;SDS011;4686;44.496;11.324;2022-07-17T15:00:55;7.03;;;4.60;;